LGTS/SKG METAR and TAF weather

Enter ICAO airport designator
Station Type Date Time Source
LGTS METAR 2019/06/27 03:50 UTC NOAA

LGTS 270350Z 11005KT CAVOK 21/19 Q1017 NOSIG


Station Type Date Time Source
LGTS Decoded METAR 2019/06/27 03:50 UTC NOAA

Thessaloniki Airport , Greece (LGTS) 40-31N 022-58E 4M
Jun 26, 2019 - 11:50 PM EDT / 2019.06.27 0350 UTC
Wind: from the ESE (110 degrees) at 6 MPH (5 KT):0
Visibility: greater than 7 mile(s):0
Temperature: 69 F (21 C)
Dew Point: 66 F (19 C)
Relative Humidity: 88%
Pressure (altimeter): 30.03 in. Hg (1017 hPa)
ob: LGTS 270350Z 11005KT CAVOK 21/19 Q1017 NOSIG
cycle: 4

Station Type Date Time Source
LGTS TAF 2019/06/26 18:12 UTC NOAA

TAF LGTS 261700Z 2618/2718 VRB03KT 9999 FEW030 PROB30
TEMPO 2618/2620 5000 TSRA FEW018CB SCT020
BECMG 2710/2712 16010KT

Example: see airport list